createdAt,value
2019-03-24T00:00:05.785Z,54.20
2019-03-24T00:02:37.443Z,56.20
2019-03-24T00:05:06.518Z,53.75
2019-03-24T00:07:45.987Z,53.90
2019-03-24T00:10:20.804Z,53.13
2019-03-24T00:12:52.969Z,56.73
2019-03-24T00:15:27.939Z,55.80
2019-03-24T00:18:04.659Z,53.08
2019-03-24T00:20:38.749Z,56.00
2019-03-24T00:23:09.297Z,54.10
2019-03-24T00:25:38.182Z,56.70
2019-03-24T00:28:09.728Z,54.20
2019-03-24T00:30:40.367Z,56.00
2019-03-24T00:35:59.439Z,53.48
2019-03-24T00:38:28.452Z,54.25
2019-03-24T00:41:00.720Z,54.93
2019-03-24T00:43:32.563Z,54.83
2019-03-24T00:46:04.519Z,55.25
2019-03-24T00:48:39.052Z,55.23
2019-03-24T00:51:12.332Z,54.48
2019-03-24T00:53:44.605Z,54.48
2019-03-24T00:56:25.185Z,56.40
2019-03-24T00:58:59.887Z,53.92
2019-03-24T01:01:33.820Z,56.13
2019-03-24T01:04:12.742Z,53.15
2019-03-24T01:06:47.444Z,54.93
2019-03-24T01:09:17.668Z,55.53
2019-03-24T01:11:46.971Z,55.10
2019-03-24T01:14:19.666Z,55.38
2019-03-24T01:16:50.276Z,57.62
2019-03-24T01:19:20.386Z,58.63
2019-03-24T01:21:51.344Z,58.75
2019-03-24T01:24:22.685Z,60.33
2019-03-24T01:26:55.012Z,61.02
2019-03-24T01:29:27.459Z,60.57
2019-03-24T01:32:00.095Z,61.15
2019-03-24T01:34:28.987Z,61.43
2019-03-24T01:36:57.976Z,59.05
2019-03-24T01:39:30.038Z,62.25
2019-03-24T01:41:59.053Z,62.70
2019-03-24T01:44:36.335Z,63.47
2019-03-24T01:47:11.268Z,61.30
2019-03-24T01:49:43.831Z,62.03
2019-03-24T01:52:15.703Z,62.62
2019-03-24T01:54:48.879Z,63.80
2019-03-24T01:57:22.196Z,63.67
2019-03-24T01:59:50.747Z,68.05
2019-03-24T02:02:24.982Z,65.13
2019-03-24T02:05:04.817Z,67.97
2019-03-24T02:07:33.496Z,67.95
2019-03-24T02:10:07.599Z,67.90
2019-03-24T02:12:37.023Z,72.35
2019-03-24T02:15:11.958Z,65.75
2019-03-24T02:17:41.131Z,67.45
2019-03-24T02:20:13.306Z,68.83
2019-03-24T02:22:44.459Z,69.67
2019-03-24T02:25:17.651Z,66.17
2019-03-24T02:27:53.912Z,67.62
2019-03-24T02:30:24.216Z,65.37
2019-03-24T02:32:53.212Z,63.03
2019-03-24T02:35:22.104Z,64.90
2019-03-24T02:37:51.293Z,62.13
2019-03-24T02:40:35.671Z,54.00
2019-03-24T02:43:06.581Z,46.80
2019-03-24T02:45:37.846Z,46.25
2019-03-24T02:48:08.252Z,40.73
2019-03-24T02:50:41.742Z,41.02
2019-03-24T02:53:17.295Z,36.77
2019-03-24T02:55:47.516Z,34.43
2019-03-24T02:58:19.748Z,33.13
2019-03-24T03:00:53.025Z,32.90
2019-03-24T03:03:24.515Z,32.93
2019-03-24T03:05:55.875Z,32.05
2019-03-24T03:08:25.645Z,31.27
2019-03-24T03:10:57.764Z,31.10
2019-03-24T03:13:28.496Z,30.02
2019-03-24T03:15:59.339Z,29.90
2019-03-24T03:18:30.871Z,27.80
2019-03-24T03:21:07.918Z,27.20
2019-03-24T03:23:38.272Z,25.60
2019-03-24T03:26:07.155Z,25.33
2019-03-24T03:28:37.886Z,25.80
2019-03-24T03:31:06.674Z,23.77
2019-03-24T03:33:35.603Z,23.30
2019-03-24T03:36:11.463Z,24.12
2019-03-24T03:38:48.596Z,21.53
2019-03-24T03:41:19.663Z,22.95
2019-03-24T03:43:52.846Z,22.93
2019-03-24T03:46:23.783Z,20.12
2019-03-24T03:51:48.991Z,17.73
2019-03-24T03:54:27.850Z,19.97
2019-03-24T03:56:56.804Z,19.30
2019-03-24T03:59:28.354Z,18.73
2019-03-24T04:02:16.209Z,14.93
2019-03-24T04:04:46.426Z,14.60
2019-03-24T04:07:16.216Z,14.47
2019-03-24T04:09:52.295Z,11.53
2019-03-24T04:12:22.596Z,13.37
2019-03-24T04:14:51.795Z,11.95
2019-03-24T04:17:20.575Z,10.57
2019-03-24T04:19:53.049Z,9.93
2019-03-24T04:22:24.910Z,9.65
2019-03-24T04:25:11.928Z,10.70
2019-03-24T04:27:42.061Z,8.40
2019-03-24T04:30:14.532Z,9.13
2019-03-24T04:32:53.872Z,8.37
2019-03-24T04:35:24.236Z,10.50
2019-03-24T04:37:53.078Z,7.87
2019-03-24T04:40:26.614Z,8.63
2019-03-24T04:42:56.979Z,8.63
2019-03-24T04:45:25.563Z,8.50
2019-03-24T04:47:57.534Z,8.58
2019-03-24T04:50:36.882Z,8.23
2019-03-24T04:53:09.503Z,7.65
2019-03-24T04:55:40.806Z,9.40
2019-03-24T04:58:13.418Z,7.57
2019-03-24T05:00:47.749Z,7.83
2019-03-24T05:03:18.204Z,8.50
2019-03-24T05:05:58.889Z,7.00
2019-03-24T05:08:36.414Z,7.10
2019-03-24T05:11:17.763Z,7.60
2019-03-24T05:13:54.073Z,8.47
2019-03-24T05:16:30.357Z,8.80
2019-03-24T05:19:03.864Z,7.90
2019-03-24T05:21:38.459Z,7.55
2019-03-24T05:26:53.596Z,6.83
2019-03-24T05:29:28.976Z,6.13
2019-03-24T05:32:04.493Z,6.37
2019-03-24T05:34:42.583Z,7.57
2019-03-24T05:37:19.566Z,6.17
2019-03-24T05:40:05.976Z,6.85
2019-03-24T05:42:43.570Z,5.58
2019-03-24T05:45:23.797Z,7.07
2019-03-24T05:47:58.022Z,6.50
2019-03-24T05:50:35.275Z,6.53
2019-03-24T05:53:07.245Z,7.43
2019-03-24T05:55:53.355Z,6.50
2019-03-24T06:00:53.526Z,7.45
2019-03-24T06:03:31.296Z,7.47
2019-03-24T06:06:05.622Z,8.00
2019-03-24T06:08:45.355Z,9.63
2019-03-24T06:11:29.095Z,9.85
2019-03-24T06:14:07.300Z,9.27
2019-03-24T06:16:44.790Z,9.95
2019-03-24T06:19:26.519Z,8.97
2019-03-24T06:22:00.298Z,9.93
2019-03-24T06:24:35.252Z,9.88
2019-03-24T06:27:12.154Z,8.25
2019-03-24T06:29:48.050Z,10.57
2019-03-24T06:32:26.846Z,9.28
2019-03-24T06:35:00.346Z,9.40
2019-03-24T06:37:30.513Z,9.65
2019-03-24T06:40:04.269Z,10.68
2019-03-24T06:42:33.054Z,10.80
2019-03-24T06:45:06.244Z,9.88
2019-03-24T06:47:38.406Z,10.03
2019-03-24T06:50:10.579Z,10.55
2019-03-24T06:52:40.690Z,11.22
2019-03-24T06:55:11.012Z,10.47
2019-03-24T06:57:42.462Z,11.57
2019-03-24T07:00:13.943Z,11.07
2019-03-24T07:02:52.586Z,10.28
2019-03-24T07:05:21.624Z,11.23
2019-03-24T07:07:52.050Z,12.30
2019-03-24T07:10:22.159Z,11.07
2019-03-24T07:12:54.249Z,10.63
2019-03-24T07:15:26.618Z,10.13
2019-03-24T07:18:08.108Z,11.43
2019-03-24T07:20:30.540Z,9.80
2019-03-24T07:23:03.930Z,11.00
2019-03-24T07:25:34.575Z,11.08
2019-03-24T07:28:14.086Z,12.45
2019-03-24T07:30:39.702Z,9.68
2019-03-24T07:33:13.810Z,10.30
2019-03-24T07:35:50.267Z,10.63
2019-03-24T07:40:47.463Z,10.08
2019-03-24T07:43:21.981Z,12.03
2019-03-24T07:45:54.945Z,11.40
2019-03-24T07:48:25.497Z,11.18
2019-03-24T07:50:54.676Z,11.12
2019-03-24T07:53:29.934Z,10.82
2019-03-24T07:55:58.497Z,11.00
2019-03-24T07:58:31.888Z,12.17
2019-03-24T08:01:05.536Z,11.47
2019-03-24T08:03:34.782Z,11.57
2019-03-24T08:06:03.676Z,11.60
2019-03-24T08:08:43.965Z,11.93
2019-03-24T08:11:09.238Z,11.80
2019-03-24T08:13:52.871Z,13.25
2019-03-24T08:16:16.287Z,13.22
2019-03-24T08:18:48.107Z,13.70
2019-03-24T08:21:20.888Z,12.33
2019-03-24T08:23:53.832Z,13.18
2019-03-24T08:26:22.541Z,13.50
2019-03-24T08:28:55.555Z,14.00
2019-03-24T08:31:26.970Z,12.45
2019-03-24T08:33:57.092Z,14.70
2019-03-24T08:36:30.300Z,14.97
2019-03-24T08:39:05.161Z,14.80
2019-03-24T08:41:35.734Z,14.47
2019-03-24T08:44:06.491Z,15.30
2019-03-24T08:46:39.272Z,14.90
2019-03-24T08:49:08.161Z,15.03
2019-03-24T08:51:38.260Z,16.00
2019-03-24T08:54:10.023Z,16.57
2019-03-24T08:56:41.483Z,15.60
2019-03-24T08:59:11.310Z,15.78
2019-03-24T09:01:51.864Z,18.05
2019-03-24T09:04:30.905Z,16.48
2019-03-24T09:07:05.178Z,16.80
2019-03-24T09:09:39.329Z,17.00
2019-03-24T09:12:16.386Z,18.50
2019-03-24T09:14:52.764Z,17.00
2019-03-24T09:17:23.782Z,16.93
2019-03-24T09:20:01.538Z,18.25
2019-03-24T09:22:38.401Z,18.35
2019-03-24T09:25:17.880Z,17.80
2019-03-24T09:27:51.931Z,17.12
2019-03-24T09:30:38.825Z,19.40
2019-03-24T09:33:15.133Z,17.85
2019-03-24T09:35:58.459Z,19.37
2019-03-24T09:38:36.218Z,17.30
2019-03-24T09:41:21.795Z,18.73
2019-03-24T09:43:59.999Z,18.25
2019-03-24T09:46:39.586Z,19.95
2019-03-24T09:49:18.464Z,17.82
2019-03-24T09:51:59.464Z,19.62
2019-03-24T09:54:36.749Z,18.98
2019-03-24T09:57:16.779Z,20.68
2019-03-24T09:59:51.599Z,20.00
2019-03-24T10:02:29.004Z,18.67
2019-03-24T10:04:57.873Z,16.80
2019-03-24T10:07:31.529Z,17.57
2019-03-24T10:10:11.228Z,17.83
2019-03-24T10:12:43.940Z,17.67
2019-03-24T10:15:17.965Z,18.00
2019-03-24T10:17:53.782Z,17.30
2019-03-24T10:20:42.231Z,16.57
2019-03-24T10:23:10.428Z,17.46
2019-03-24T10:25:45.734Z,18.25
2019-03-24T10:28:24.651Z,17.27
2019-03-24T10:31:03.319Z,17.37
2019-03-24T10:33:46.495Z,15.30
2019-03-24T10:36:29.001Z,12.00
2019-03-24T10:39:06.697Z,12.80
2019-03-24T10:41:46.572Z,14.18
2019-03-24T10:44:31.814Z,14.58
2019-03-24T10:47:05.672Z,15.00
2019-03-24T10:49:44.851Z,13.88
2019-03-24T10:52:22.024Z,15.28
2019-03-24T10:54:57.062Z,12.75
2019-03-24T10:57:36.693Z,12.58
2019-03-24T11:00:10.901Z,12.25
2019-03-24T11:02:46.463Z,11.78
2019-03-24T11:05:16.994Z,8.53
2019-03-24T11:07:53.618Z,8.35
2019-03-24T11:10:35.770Z,7.60
2019-03-24T11:13:14.519Z,4.98
2019-03-24T11:15:50.380Z,6.22
2019-03-24T11:18:33.158Z,6.77
2019-03-24T11:21:11.568Z,3.83
2019-03-24T11:23:57.223Z,4.05
2019-03-24T11:26:35.555Z,5.95
2019-03-24T11:29:25.027Z,4.75
2019-03-24T11:32:09.800Z,4.83
2019-03-24T11:34:42.138Z,5.53
2019-03-24T11:37:18.346Z,5.25
2019-03-24T11:39:44.794Z,4.87
2019-03-24T11:42:17.325Z,5.37
2019-03-24T11:44:47.366Z,5.47
2019-03-24T11:47:26.540Z,4.37
2019-03-24T11:49:51.577Z,5.70
2019-03-24T11:52:21.778Z,5.80
2019-03-24T11:54:52.223Z,3.65
2019-03-24T11:57:26.127Z,4.12
2019-03-24T11:59:54.886Z,4.33
2019-03-24T12:02:36.599Z,4.43
2019-03-24T12:05:08.545Z,4.02
2019-03-24T12:07:37.127Z,5.03
2019-03-24T12:10:08.833Z,4.23
2019-03-24T12:12:45.896Z,4.57
2019-03-24T12:15:15.671Z,3.40
2019-03-24T12:17:45.993Z,2.80
2019-03-24T12:20:19.922Z,2.60
2019-03-24T12:25:31.629Z,2.95
2019-03-24T12:28:09.734Z,2.30
2019-03-24T12:30:45.105Z,2.95
2019-03-24T12:33:22.491Z,3.47
2019-03-24T12:35:56.954Z,3.77
2019-03-24T12:38:30.295Z,3.05
2019-03-24T12:41:24.222Z,3.80
2019-03-24T12:43:52.369Z,3.37
2019-03-24T12:46:31.509Z,2.85
2019-03-24T12:49:08.394Z,3.80
2019-03-24T12:51:41.203Z,3.93
2019-03-24T12:54:16.670Z,2.93
2019-03-24T12:56:59.111Z,3.42
2019-03-24T12:59:35.818Z,3.62
2019-03-24T13:02:11.651Z,3.80
2019-03-24T13:04:51.180Z,4.70
2019-03-24T13:07:24.674Z,5.20
2019-03-24T13:10:01.181Z,5.58
2019-03-24T13:12:37.256Z,4.10
2019-03-24T13:15:12.007Z,3.20
2019-03-24T13:17:51.092Z,4.10
2019-03-24T13:20:38.600Z,3.10
2019-03-24T13:23:07.612Z,4.00
2019-03-24T13:25:42.949Z,4.53
2019-03-24T13:28:27.331Z,4.97
2019-03-24T13:31:10.315Z,4.37
2019-03-24T13:33:52.916Z,6.43
2019-03-24T13:36:29.019Z,4.23
2019-03-24T13:39:05.358Z,3.40
2019-03-24T13:44:17.385Z,6.43
2019-03-24T13:46:56.595Z,6.83
2019-03-24T13:49:36.175Z,5.20
2019-03-24T13:52:15.655Z,5.28
2019-03-24T13:55:06.495Z,6.33
2019-03-24T13:57:42.197Z,7.17
2019-03-24T14:00:20.060Z,5.80
2019-03-24T14:02:59.899Z,6.25
2019-03-24T14:05:37.729Z,5.00
2019-03-24T14:08:14.878Z,6.95
2019-03-24T14:10:51.972Z,6.62
2019-03-24T14:13:29.366Z,7.47
2019-03-24T14:16:10.995Z,8.10
2019-03-24T14:18:50.521Z,6.87
2019-03-24T14:21:26.833Z,9.00
2019-03-24T14:24:07.720Z,7.55
2019-03-24T14:26:44.147Z,10.97
2019-03-24T14:29:22.864Z,8.88
2019-03-24T14:31:59.715Z,7.42
2019-03-24T14:34:36.065Z,10.43
2019-03-24T14:37:21.290Z,8.90
2019-03-24T14:39:58.439Z,10.80
2019-03-24T14:42:34.231Z,8.00
2019-03-24T14:45:14.703Z,8.73
2019-03-24T14:47:50.225Z,10.47
2019-03-24T14:50:25.629Z,9.40
2019-03-24T14:53:03.642Z,9.50
2019-03-24T14:55:51.239Z,9.03
2019-03-24T14:58:22.250Z,8.23
2019-03-24T15:01:02.551Z,8.70
2019-03-24T15:03:36.516Z,9.17
2019-03-24T15:06:17.331Z,9.60
2019-03-24T15:08:57.474Z,11.33
2019-03-24T15:11:34.097Z,8.70
2019-03-24T15:14:13.332Z,9.50
2019-03-24T15:16:50.519Z,8.38
2019-03-24T15:19:34.519Z,9.08
2019-03-24T15:22:02.621Z,6.20
2019-03-24T15:24:37.463Z,10.05
2019-03-24T15:27:15.894Z,10.80
2019-03-24T15:29:55.008Z,10.70
2019-03-24T15:32:36.173Z,12.43
2019-03-24T15:35:18.492Z,10.76
2019-03-24T15:38:07.833Z,6.12
2019-03-24T15:40:40.737Z,10.58
2019-03-24T15:43:21.447Z,9.13
2019-03-24T15:45:54.930Z,9.65
2019-03-24T15:51:16.061Z,9.80
2019-03-24T15:53:43.773Z,8.58
2019-03-24T15:56:26.068Z,9.10
2019-03-24T15:59:02.378Z,8.23
2019-03-24T16:01:48.455Z,7.33
2019-03-24T16:04:22.823Z,7.35
2019-03-24T16:07:09.705Z,8.00
2019-03-24T16:09:40.596Z,10.88
2019-03-24T16:12:18.795Z,9.63
2019-03-24T16:15:07.129Z,12.58
2019-03-24T16:17:38.776Z,10.88
2019-03-24T16:20:13.352Z,10.50
2019-03-24T16:22:51.856Z,10.33
2019-03-24T16:25:28.161Z,10.85
2019-03-24T16:28:13.956Z,10.23
2019-03-24T16:30:48.624Z,10.90
2019-03-24T16:33:28.581Z,10.55
2019-03-24T16:36:04.782Z,9.18
2019-03-24T16:38:48.751Z,9.43
2019-03-24T16:41:17.292Z,10.90
2019-03-24T16:43:51.394Z,11.93
2019-03-24T16:49:27.750Z,10.23
2019-03-24T16:52:03.432Z,8.15
2019-03-24T16:54:38.317Z,12.03
2019-03-24T16:57:20.011Z,10.63
2019-03-24T16:59:57.114Z,10.23
2019-03-24T17:02:29.300Z,9.10
2019-03-24T17:05:07.204Z,8.68
2019-03-24T17:07:43.920Z,9.18
2019-03-24T17:10:20.415Z,9.37
2019-03-24T17:13:03.240Z,9.43
2019-03-24T17:15:46.868Z,8.93
2019-03-24T17:18:24.481Z,10.50
2019-03-24T17:21:06.661Z,8.57
2019-03-24T17:23:43.480Z,11.00
2019-03-24T17:26:14.451Z,10.27
2019-03-24T17:28:43.643Z,7.53
2019-03-24T17:31:20.443Z,11.80
2019-03-24T17:33:56.910Z,10.60
2019-03-24T17:36:34.781Z,9.65
2019-03-24T17:39:12.763Z,8.30
2019-03-24T17:41:51.203Z,9.58
2019-03-24T17:44:30.564Z,10.70
2019-03-24T17:47:05.285Z,8.80
2019-03-24T17:49:43.844Z,9.65
2019-03-24T17:52:24.986Z,9.25
2019-03-24T17:54:59.450Z,10.95
2019-03-24T17:57:36.476Z,9.80
2019-03-24T18:00:19.603Z,30.23
2019-03-24T18:02:54.506Z,28.55
2019-03-24T18:05:33.150Z,21.77
2019-03-24T18:11:15.879Z,17.27
2019-03-24T18:13:58.919Z,11.12
2019-03-24T18:16:35.658Z,10.80
2019-03-24T18:19:15.020Z,20.70
2019-03-24T18:21:53.888Z,12.63
2019-03-24T18:24:31.207Z,15.30
2019-03-24T18:27:10.547Z,12.95
2019-03-24T18:29:50.128Z,16.80
2019-03-24T18:32:25.944Z,15.50
2019-03-24T18:35:03.898Z,14.23
2019-03-24T18:37:38.541Z,13.40
2019-03-24T18:40:14.665Z,15.90
2019-03-24T18:42:53.146Z,13.80
2019-03-24T18:45:37.013Z,17.67
2019-03-24T18:48:12.588Z,28.00
2019-03-24T18:53:28.214Z,27.80
2019-03-24T18:56:09.856Z,18.40
2019-03-24T18:58:49.154Z,18.23
2019-03-24T19:01:29.694Z,21.63
2019-03-24T19:04:01.936Z,22.48
2019-03-24T19:09:28.124Z,17.47
2019-03-24T19:12:07.987Z,18.57
2019-03-24T19:14:46.219Z,22.63
2019-03-24T19:17:35.821Z,23.53
2019-03-24T19:20:15.597Z,21.85
2019-03-24T19:22:49.087Z,17.57
2019-03-24T19:25:24.752Z,17.73
2019-03-24T19:31:03.232Z,20.52
2019-03-24T19:33:43.430Z,26.37
2019-03-24T19:36:20.261Z,35.68
2019-03-24T19:38:55.109Z,32.70
2019-03-24T19:41:34.893Z,21.23
2019-03-24T19:44:12.529Z,14.60
2019-03-24T19:47:04.805Z,11.50
2019-03-24T19:49:48.169Z,10.85
2019-03-24T19:52:25.919Z,10.90
2019-03-24T19:55:06.063Z,12.47
2019-03-24T19:57:47.437Z,19.10
2019-03-24T20:00:23.322Z,44.67
2019-03-24T20:03:03.548Z,46.90
2019-03-24T20:05:42.735Z,79.63
2019-03-24T20:11:40.353Z,15.80
2019-03-24T20:14:23.974Z,15.35
2019-03-24T20:16:54.861Z,16.62
2019-03-24T20:19:29.124Z,14.30
2019-03-24T20:22:02.626Z,15.27
2019-03-24T20:24:38.782Z,14.98
2019-03-24T20:27:17.860Z,14.05
2019-03-24T20:29:52.755Z,14.73
2019-03-24T20:32:26.050Z,15.83
2019-03-24T20:35:01.276Z,15.83
2019-03-24T20:37:38.103Z,16.27
2019-03-24T20:40:13.709Z,16.85
2019-03-24T20:42:49.576Z,17.12
2019-03-24T20:45:24.817Z,17.60
2019-03-24T20:47:59.781Z,17.70
2019-03-24T20:50:34.527Z,17.07
2019-03-24T20:53:18.043Z,17.87
2019-03-24T20:55:48.062Z,17.65
2019-03-24T20:58:24.508Z,19.00
2019-03-24T21:00:58.357Z,18.20
2019-03-24T21:03:37.171Z,18.75
2019-03-24T21:06:10.254Z,17.55
2019-03-24T21:08:43.141Z,17.25
2019-03-24T21:11:16.574Z,18.07
2019-03-24T21:13:50.790Z,19.10
2019-03-24T21:16:25.523Z,18.37
2019-03-24T21:18:58.722Z,19.50
2019-03-24T21:21:32.128Z,19.27
2019-03-24T21:24:06.285Z,17.52
2019-03-24T21:26:39.399Z,18.95
2019-03-24T21:29:12.586Z,18.73
2019-03-24T21:31:46.785Z,21.17
2019-03-24T21:34:23.700Z,20.68
2019-03-24T21:36:57.700Z,20.05
2019-03-24T21:39:35.818Z,20.37
2019-03-24T21:42:12.092Z,19.82
2019-03-24T21:44:51.550Z,19.43
2019-03-24T21:47:24.005Z,20.33
2019-03-24T21:49:56.791Z,19.50
2019-03-24T21:52:32.410Z,18.95
2019-03-24T21:55:07.534Z,20.72
2019-03-24T21:57:37.773Z,19.10
2019-03-24T22:00:11.624Z,21.27
2019-03-24T22:02:41.418Z,18.98
2019-03-24T22:05:15.234Z,21.00
2019-03-24T22:07:45.686Z,21.87
2019-03-24T22:10:14.274Z,20.30
2019-03-24T22:12:43.392Z,20.77
2019-03-24T22:15:16.000Z,19.77
2019-03-24T22:17:45.266Z,20.48
2019-03-24T22:20:14.364Z,19.20
2019-03-24T22:22:43.879Z,18.90
2019-03-24T22:25:12.835Z,19.80
2019-03-24T22:27:41.617Z,20.75
2019-03-24T22:30:10.509Z,20.60
2019-03-24T22:32:39.623Z,20.07
2019-03-24T22:35:08.186Z,21.37
2019-03-24T22:37:37.813Z,20.27
2019-03-24T22:40:08.017Z,20.90
2019-03-24T22:42:37.026Z,20.27
2019-03-24T22:45:06.923Z,20.78
2019-03-24T22:47:35.502Z,20.97
2019-03-24T22:50:06.986Z,21.87
2019-03-24T22:52:36.144Z,22.32
2019-03-24T22:55:07.076Z,19.73
2019-03-24T22:57:36.815Z,19.37
2019-03-24T23:00:09.734Z,19.96
2019-03-24T23:02:40.718Z,20.97
2019-03-24T23:05:09.292Z,21.48
2019-03-24T23:07:38.185Z,21.83
2019-03-24T23:10:07.198Z,21.20
2019-03-24T23:12:35.758Z,22.30
2019-03-24T23:15:06.691Z,21.80
2019-03-24T23:17:36.705Z,20.52
2019-03-24T23:20:07.360Z,19.98
2019-03-24T23:22:36.533Z,20.70
2019-03-24T23:25:07.071Z,19.48
2019-03-24T23:27:35.955Z,21.00
2019-03-24T23:30:07.630Z,20.42
2019-03-24T23:32:36.498Z,20.73
2019-03-24T23:35:08.150Z,20.20
2019-03-24T23:37:37.038Z,21.37
2019-03-24T23:40:06.750Z,21.70
2019-03-24T23:42:35.642Z,20.87
2019-03-24T23:45:07.109Z,19.60
2019-03-24T23:47:35.971Z,20.63
2019-03-24T23:50:06.956Z,20.70
2019-03-24T23:52:35.798Z,22.00
2019-03-24T23:55:05.202Z,19.73
2019-03-24T23:57:34.097Z,18.20
